Terminal Aerodrome Forecast
Issued by NWS

Home | Current Version | Previous Version | Text Only | Print | Product List | Glossary On
Versions: 1 2 3 4 5 6 7 8 9 10 11 12 13 14 15 16 17 18 19 20 21 22 23 24 25
753
FTUS44 KLZK 222107 AAC
TAFLIT
TAF AMD
KLIT 222107Z 2221/2318 32008KT P6SM VCSH SCT020 OVC050
     FM230300 29007KT P6SM VCSH BKN020 OVC035
     FM230800 29007KT P6SM OVC030
      TEMPO 2308/2312 4SM BR SCT008 OVC020
     FM231500 30010KT P6SM BKN040=

USA.gov is the U.S. government's official web portal to all federal, state and local government web resources and services.